sensor_id;sensor_type;location;lat;lon;timestamp;temperature;humidity
10046;DHT22;5063;50.878;4.742;2023-08-30T00:00:37;13.00;99.90
10046;DHT22;5063;50.878;4.742;2023-08-30T00:03:03;13.00;99.90
10046;DHT22;5063;50.878;4.742;2023-08-30T00:05:28;13.00;99.90
10046;DHT22;5063;50.878;4.742;2023-08-30T00:07:54;13.10;99.90
10046;DHT22;5063;50.878;4.742;2023-08-30T00:10:20;13.10;99.90
10046;DHT22;5063;50.878;4.742;2023-08-30T00:12:45;13.10;99.90
10046;DHT22;5063;50.878;4.742;2023-08-30T00:15:11;13.10;99.90
10046;DHT22;5063;50.878;4.742;2023-08-30T00:17:37;13.00;99.90
10046;DHT22;5063;50.878;4.742;2023-08-30T00:20:03;13.00;99.90
10046;DHT22;5063;50.878;4.742;2023-08-30T00:22:28;13.00;99.90
10046;DHT22;5063;50.878;4.742;2023-08-30T00:24:54;13.00;99.90
10046;DHT22;5063;50.878;4.742;2023-08-30T00:27:20;13.00;99.90
10046;DHT22;5063;50.878;4.742;2023-08-30T00:29:46;13.10;99.90
10046;DHT22;5063;50.878;4.742;2023-08-30T00:32:12;13.20;99.90
10046;DHT22;5063;50.878;4.742;2023-08-30T00:34:38;13.30;99.90
10046;DHT22;5063;50.878;4.742;2023-08-30T00:37:03;13.30;99.90
10046;DHT22;5063;50.878;4.742;2023-08-30T00:39:29;13.30;99.90
10046;DHT22;5063;50.878;4.742;2023-08-30T00:41:55;13.30;99.90
10046;DHT22;5063;50.878;4.742;2023-08-30T00:44:20;13.40;99.90
10046;DHT22;5063;50.878;4.742;2023-08-30T00:46:46;13.40;99.90
10046;DHT22;5063;50.878;4.742;2023-08-30T00:49:13;13.40;99.90
10046;DHT22;5063;50.878;4.742;2023-08-30T00:51:39;13.40;99.90
10046;DHT22;5063;50.878;4.742;2023-08-30T00:54:06;13.50;99.90
10046;DHT22;5063;50.878;4.742;2023-08-30T00:56:32;13.50;99.90
10046;DHT22;5063;50.878;4.742;2023-08-30T00:58:59;13.50;99.90
10046;DHT22;5063;50.878;4.742;2023-08-30T01:01:26;13.50;99.90
10046;DHT22;5063;50.878;4.742;2023-08-30T01:03:52;13.50;99.90
10046;DHT22;5063;50.878;4.742;2023-08-30T01:06:17;13.50;99.90
10046;DHT22;5063;50.878;4.742;2023-08-30T01:08:43;13.50;99.90
10046;DHT22;5063;50.878;4.742;2023-08-30T01:11:22;13.50;99.90
10046;DHT22;5063;50.878;4.742;2023-08-30T01:13:57;13.60;99.90
10046;DHT22;5063;50.878;4.742;2023-08-30T01:16:24;13.60;99.90
10046;DHT22;5063;50.878;4.742;2023-08-30T01:18:55;13.60;99.90
10046;DHT22;5063;50.878;4.742;2023-08-30T01:21:38;13.50;99.90
10046;DHT22;5063;50.878;4.742;2023-08-30T01:24:12;13.50;99.90
10046;DHT22;5063;50.878;4.742;2023-08-30T01:26:59;13.50;99.90
10046;DHT22;5063;50.878;4.742;2023-08-30T01:29:26;13.40;99.90
10046;DHT22;5063;50.878;4.742;2023-08-30T01:31:52;13.30;99.90
10046;DHT22;5063;50.878;4.742;2023-08-30T01:34:19;13.30;99.90
10046;DHT22;5063;50.878;4.742;2023-08-30T01:36:45;13.40;99.90
10046;DHT22;5063;50.878;4.742;2023-08-30T01:39:12;13.50;99.90
10046;DHT22;5063;50.878;4.742;2023-08-30T01:41:38;13.60;99.90
10046;DHT22;5063;50.878;4.742;2023-08-30T01:44:06;13.70;99.90
10046;DHT22;5063;50.878;4.742;2023-08-30T01:46:33;13.70;99.90
10046;DHT22;5063;50.878;4.742;2023-08-30T01:49:02;13.80;99.90
10046;DHT22;5063;50.878;4.742;2023-08-30T01:51:28;13.80;99.90
10046;DHT22;5063;50.878;4.742;2023-08-30T01:53:56;13.80;99.90
10046;DHT22;5063;50.878;4.742;2023-08-30T01:56:23;13.90;99.90
10046;DHT22;5063;50.878;4.742;2023-08-30T01:58:49;14.00;99.90
10046;DHT22;5063;50.878;4.742;2023-08-30T02:01:15;14.00;99.90
10046;DHT22;5063;50.878;4.742;2023-08-30T02:03:43;14.00;99.90
10046;DHT22;5063;50.878;4.742;2023-08-30T02:06:29;13.90;99.90
10046;DHT22;5063;50.878;4.742;2023-08-30T02:09:23;13.80;99.90
10046;DHT22;5063;50.878;4.742;2023-08-30T02:11:51;13.90;99.90
10046;DHT22;5063;50.878;4.742;2023-08-30T02:14:18;14.00;99.90
10046;DHT22;5063;50.878;4.742;2023-08-30T02:16:46;14.10;99.90
10046;DHT22;5063;50.878;4.742;2023-08-30T02:19:13;14.20;99.90
10046;DHT22;5063;50.878;4.742;2023-08-30T02:21:42;14.30;99.90
10046;DHT22;5063;50.878;4.742;2023-08-30T02:24:09;14.30;99.90
10046;DHT22;5063;50.878;4.742;2023-08-30T02:26:34;14.40;99.90
10046;DHT22;5063;50.878;4.742;2023-08-30T02:29:00;14.40;99.90
10046;DHT22;5063;50.878;4.742;2023-08-30T02:31:26;14.40;99.90
10046;DHT22;5063;50.878;4.742;2023-08-30T02:33:51;14.40;99.90
10046;DHT22;5063;50.878;4.742;2023-08-30T02:36:17;14.30;99.90
10046;DHT22;5063;50.878;4.742;2023-08-30T02:38:42;14.10;99.90
10046;DHT22;5063;50.878;4.742;2023-08-30T02:41:08;13.90;99.90
10046;DHT22;5063;50.878;4.742;2023-08-30T02:43:35;13.90;99.90
10046;DHT22;5063;50.878;4.742;2023-08-30T02:46:01;13.80;99.90
10046;DHT22;5063;50.878;4.742;2023-08-30T02:48:29;13.70;99.90
10046;DHT22;5063;50.878;4.742;2023-08-30T02:50:54;13.70;99.90
10046;DHT22;5063;50.878;4.742;2023-08-30T02:53:21;13.70;99.90
10046;DHT22;5063;50.878;4.742;2023-08-30T02:55:47;13.70;99.90
10046;DHT22;5063;50.878;4.742;2023-08-30T02:58:13;13.70;99.90
10046;DHT22;5063;50.878;4.742;2023-08-30T03:00:39;13.70;99.90
10046;DHT22;5063;50.878;4.742;2023-08-30T03:03:05;13.70;99.90
10046;DHT22;5063;50.878;4.742;2023-08-30T03:05:31;13.70;99.90
10046;DHT22;5063;50.878;4.742;2023-08-30T03:07:56;13.70;99.90
10046;DHT22;5063;50.878;4.742;2023-08-30T03:10:22;13.70;99.90
10046;DHT22;5063;50.878;4.742;2023-08-30T03:12:48;13.70;99.90
10046;DHT22;5063;50.878;4.742;2023-08-30T03:15:14;13.70;99.90
10046;DHT22;5063;50.878;4.742;2023-08-30T03:17:39;13.70;99.90
10046;DHT22;5063;50.878;4.742;2023-08-30T03:20:06;13.70;99.90
10046;DHT22;5063;50.878;4.742;2023-08-30T03:22:31;13.80;99.90
10046;DHT22;5063;50.878;4.742;2023-08-30T03:24:57;13.80;99.90
10046;DHT22;5063;50.878;4.742;2023-08-30T03:27:24;13.80;99.90
10046;DHT22;5063;50.878;4.742;2023-08-30T03:29:49;13.80;99.90
10046;DHT22;5063;50.878;4.742;2023-08-30T03:32:17;13.80;99.90
10046;DHT22;5063;50.878;4.742;2023-08-30T03:34:46;13.80;99.90
10046;DHT22;5063;50.878;4.742;2023-08-30T03:37:16;13.80;99.90
10046;DHT22;5063;50.878;4.742;2023-08-30T03:39:41;13.90;99.90
10046;DHT22;5063;50.878;4.742;2023-08-30T03:42:07;13.90;99.90
10046;DHT22;5063;50.878;4.742;2023-08-30T03:44:33;13.90;99.90
10046;DHT22;5063;50.878;4.742;2023-08-30T03:46:59;13.90;99.90
10046;DHT22;5063;50.878;4.742;2023-08-30T03:49:24;13.80;99.90
10046;DHT22;5063;50.878;4.742;2023-08-30T03:51:50;13.80;99.90
10046;DHT22;5063;50.878;4.742;2023-08-30T03:54:16;13.80;99.90
10046;DHT22;5063;50.878;4.742;2023-08-30T03:56:45;13.80;99.90
10046;DHT22;5063;50.878;4.742;2023-08-30T03:59:11;13.80;99.90
10046;DHT22;5063;50.878;4.742;2023-08-30T04:01:37;13.80;99.90
10046;DHT22;5063;50.878;4.742;2023-08-30T04:04:03;13.80;99.90
10046;DHT22;5063;50.878;4.742;2023-08-30T04:06:30;13.80;99.90
10046;DHT22;5063;50.878;4.742;2023-08-30T04:08:56;13.80;99.90
10046;DHT22;5063;50.878;4.742;2023-08-30T04:11:21;13.80;99.90
10046;DHT22;5063;50.878;4.742;2023-08-30T04:13:47;13.80;99.90
10046;DHT22;5063;50.878;4.742;2023-08-30T04:16:13;13.70;99.90
10046;DHT22;5063;50.878;4.742;2023-08-30T04:18:38;13.80;99.90
10046;DHT22;5063;50.878;4.742;2023-08-30T04:21:04;13.70;99.90
10046;DHT22;5063;50.878;4.742;2023-08-30T04:23:31;13.70;99.90
10046;DHT22;5063;50.878;4.742;2023-08-30T04:25:57;13.70;99.90
10046;DHT22;5063;50.878;4.742;2023-08-30T04:28:23;13.70;99.90
10046;DHT22;5063;50.878;4.742;2023-08-30T04:30:48;13.70;99.90
10046;DHT22;5063;50.878;4.742;2023-08-30T04:33:14;13.70;99.90
10046;DHT22;5063;50.878;4.742;2023-08-30T04:35:40;13.70;99.90
10046;DHT22;5063;50.878;4.742;2023-08-30T04:38:05;13.60;99.90
10046;DHT22;5063;50.878;4.742;2023-08-30T04:40:32;13.70;99.90
10046;DHT22;5063;50.878;4.742;2023-08-30T04:42:58;13.70;99.90
10046;DHT22;5063;50.878;4.742;2023-08-30T04:45:24;13.80;99.90
10046;DHT22;5063;50.878;4.742;2023-08-30T04:47:50;13.80;99.90
10046;DHT22;5063;50.878;4.742;2023-08-30T04:50:16;13.90;99.90
10046;DHT22;5063;50.878;4.742;2023-08-30T04:52:43;13.90;99.90
10046;DHT22;5063;50.878;4.742;2023-08-30T04:55:09;13.90;99.90
10046;DHT22;5063;50.878;4.742;2023-08-30T04:57:34;14.00;99.90
10046;DHT22;5063;50.878;4.742;2023-08-30T05:00:00;14.00;99.90
10046;DHT22;5063;50.878;4.742;2023-08-30T05:02:30;14.00;99.90
10046;DHT22;5063;50.878;4.742;2023-08-30T05:04:56;14.00;99.90
10046;DHT22;5063;50.878;4.742;2023-08-30T05:07:22;14.00;99.90
10046;DHT22;5063;50.878;4.742;2023-08-30T05:09:48;14.00;99.90
10046;DHT22;5063;50.878;4.742;2023-08-30T05:12:13;14.00;99.90
10046;DHT22;5063;50.878;4.742;2023-08-30T05:14:39;14.10;99.90
10046;DHT22;5063;50.878;4.742;2023-08-30T05:17:06;14.10;99.90
10046;DHT22;5063;50.878;4.742;2023-08-30T05:19:32;14.10;99.90
10046;DHT22;5063;50.878;4.742;2023-08-30T05:21:58;14.20;99.90
10046;DHT22;5063;50.878;4.742;2023-08-30T05:24:24;14.20;99.90
10046;DHT22;5063;50.878;4.742;2023-08-30T05:26:51;14.20;99.90
10046;DHT22;5063;50.878;4.742;2023-08-30T05:29:17;14.30;99.90
10046;DHT22;5063;50.878;4.742;2023-08-30T05:31:43;14.30;99.90
10046;DHT22;5063;50.878;4.742;2023-08-30T05:34:10;14.40;99.90
10046;DHT22;5063;50.878;4.742;2023-08-30T05:36:36;14.40;99.90
10046;DHT22;5063;50.878;4.742;2023-08-30T05:39:02;14.40;99.90
10046;DHT22;5063;50.878;4.742;2023-08-30T05:41:29;14.50;99.90
10046;DHT22;5063;50.878;4.742;2023-08-30T05:43:55;14.50;99.90
10046;DHT22;5063;50.878;4.742;2023-08-30T05:46:21;14.50;99.90
10046;DHT22;5063;50.878;4.742;2023-08-30T05:48:46;14.50;99.90
10046;DHT22;5063;50.878;4.742;2023-08-30T05:51:12;14.60;99.90
10046;DHT22;5063;50.878;4.742;2023-08-30T05:53:38;14.60;99.90
10046;DHT22;5063;50.878;4.742;2023-08-30T05:56:04;14.70;99.90
10046;DHT22;5063;50.878;4.742;2023-08-30T05:58:30;14.70;99.90
10046;DHT22;5063;50.878;4.742;2023-08-30T06:00:56;14.80;99.90
10046;DHT22;5063;50.878;4.742;2023-08-30T06:03:22;14.80;99.90
10046;DHT22;5063;50.878;4.742;2023-08-30T06:05:48;14.90;99.90
10046;DHT22;5063;50.878;4.742;2023-08-30T06:08:16;14.90;99.90
10046;DHT22;5063;50.878;4.742;2023-08-30T06:10:43;14.90;99.90
10046;DHT22;5063;50.878;4.742;2023-08-30T06:13:09;14.80;99.90
10046;DHT22;5063;50.878;4.742;2023-08-30T06:15:37;14.80;99.90
10046;DHT22;5063;50.878;4.742;2023-08-30T06:18:04;14.90;99.90
10046;DHT22;5063;50.878;4.742;2023-08-30T06:20:30;14.90;99.90
10046;DHT22;5063;50.878;4.742;2023-08-30T06:22:58;14.90;99.90
10046;DHT22;5063;50.878;4.742;2023-08-30T06:25:24;14.90;99.90
10046;DHT22;5063;50.878;4.742;2023-08-30T06:27:58;14.80;99.90
10046;DHT22;5063;50.878;4.742;2023-08-30T06:30:25;14.80;99.90
10046;DHT22;5063;50.878;4.742;2023-08-30T06:32:51;14.80;99.90
10046;DHT22;5063;50.878;4.742;2023-08-30T06:35:17;14.70;99.90
10046;DHT22;5063;50.878;4.742;2023-08-30T06:37:43;14.70;99.90
10046;DHT22;5063;50.878;4.742;2023-08-30T06:40:09;14.70;99.90
10046;DHT22;5063;50.878;4.742;2023-08-30T06:42:34;14.70;99.90
10046;DHT22;5063;50.878;4.742;2023-08-30T06:45:01;14.80;99.90
10046;DHT22;5063;50.878;4.742;2023-08-30T06:47:28;14.80;99.90
10046;DHT22;5063;50.878;4.742;2023-08-30T06:49:53;14.90;99.90
10046;DHT22;5063;50.878;4.742;2023-08-30T06:52:19;14.90;99.90
10046;DHT22;5063;50.878;4.742;2023-08-30T06:54:45;15.00;99.90
10046;DHT22;5063;50.878;4.742;2023-08-30T06:57:10;15.20;99.90
10046;DHT22;5063;50.878;4.742;2023-08-30T06:59:36;15.20;99.90
10046;DHT22;5063;50.878;4.742;2023-08-30T07:02:02;15.30;99.90
10046;DHT22;5063;50.878;4.742;2023-08-30T07:04:28;15.30;99.90
10046;DHT22;5063;50.878;4.742;2023-08-30T07:06:54;15.50;99.90
10046;DHT22;5063;50.878;4.742;2023-08-30T07:09:20;15.70;99.90
10046;DHT22;5063;50.878;4.742;2023-08-30T07:11:45;16.00;99.90
10046;DHT22;5063;50.878;4.742;2023-08-30T07:14:12;16.10;99.90
10046;DHT22;5063;50.878;4.742;2023-08-30T07:16:40;16.00;99.90
10046;DHT22;5063;50.878;4.742;2023-08-30T07:19:06;15.80;99.90
10046;DHT22;5063;50.878;4.742;2023-08-30T07:21:32;15.70;99.90
10046;DHT22;5063;50.878;4.742;2023-08-30T07:23:58;15.80;99.90
10046;DHT22;5063;50.878;4.742;2023-08-30T07:26:24;15.90;99.90
10046;DHT22;5063;50.878;4.742;2023-08-30T07:28:49;15.90;99.90
10046;DHT22;5063;50.878;4.742;2023-08-30T07:31:15;15.70;99.90
10046;DHT22;5063;50.878;4.742;2023-08-30T07:33:46;15.70;99.90
10046;DHT22;5063;50.878;4.742;2023-08-30T07:36:12;15.60;99.90
10046;DHT22;5063;50.878;4.742;2023-08-30T07:38:38;15.40;99.90
10046;DHT22;5063;50.878;4.742;2023-08-30T07:41:03;15.30;99.90
10046;DHT22;5063;50.878;4.742;2023-08-30T07:43:29;15.20;99.90
10046;DHT22;5063;50.878;4.742;2023-08-30T07:45:55;15.20;99.90
10046;DHT22;5063;50.878;4.742;2023-08-30T07:48:22;15.30;99.90
10046;DHT22;5063;50.878;4.742;2023-08-30T07:50:47;15.30;99.90
10046;DHT22;5063;50.878;4.742;2023-08-30T07:53:13;15.20;99.90
10046;DHT22;5063;50.878;4.742;2023-08-30T07:55:39;15.10;99.90
10046;DHT22;5063;50.878;4.742;2023-08-30T07:58:05;15.00;99.90
10046;DHT22;5063;50.878;4.742;2023-08-30T08:00:31;14.90;99.90
10046;DHT22;5063;50.878;4.742;2023-08-30T08:02:57;14.90;99.90
10046;DHT22;5063;50.878;4.742;2023-08-30T08:05:22;14.90;99.90
10046;DHT22;5063;50.878;4.742;2023-08-30T08:07:52;14.80;99.90
10046;DHT22;5063;50.878;4.742;2023-08-30T08:10:18;14.90;99.90
10046;DHT22;5063;50.878;4.742;2023-08-30T08:12:43;14.90;99.90
10046;DHT22;5063;50.878;4.742;2023-08-30T08:15:09;14.90;99.90
10046;DHT22;5063;50.878;4.742;2023-08-30T08:17:35;14.90;99.90
10046;DHT22;5063;50.878;4.742;2023-08-30T08:20:01;15.00;99.90
10046;DHT22;5063;50.878;4.742;2023-08-30T08:22:27;15.20;99.90
10046;DHT22;5063;50.878;4.742;2023-08-30T08:24:54;15.00;99.90
10046;DHT22;5063;50.878;4.742;2023-08-30T08:27:21;14.90;99.90
10046;DHT22;5063;50.878;4.742;2023-08-30T08:29:47;15.00;99.90
10046;DHT22;5063;50.878;4.742;2023-08-30T08:32:13;15.00;99.90
10046;DHT22;5063;50.878;4.742;2023-08-30T08:34:38;15.00;99.90
10046;DHT22;5063;50.878;4.742;2023-08-30T08:37:04;15.10;99.90
10046;DHT22;5063;50.878;4.742;2023-08-30T08:39:31;15.20;99.90
10046;DHT22;5063;50.878;4.742;2023-08-30T08:41:59;15.20;99.90
10046;DHT22;5063;50.878;4.742;2023-08-30T08:44:26;15.30;99.90
10046;DHT22;5063;50.878;4.742;2023-08-30T08:46:54;15.30;99.90
10046;DHT22;5063;50.878;4.742;2023-08-30T08:49:20;15.40;99.90
10046;DHT22;5063;50.878;4.742;2023-08-30T08:51:46;15.60;99.90
10046;DHT22;5063;50.878;4.742;2023-08-30T08:54:12;15.80;99.90
10046;DHT22;5063;50.878;4.742;2023-08-30T08:56:39;15.80;99.90
10046;DHT22;5063;50.878;4.742;2023-08-30T08:59:05;15.90;99.90
10046;DHT22;5063;50.878;4.742;2023-08-30T09:01:34;16.10;99.90
10046;DHT22;5063;50.878;4.742;2023-08-30T09:04:07;16.30;99.90
10046;DHT22;5063;50.878;4.742;2023-08-30T09:06:34;16.60;99.90
10046;DHT22;5063;50.878;4.742;2023-08-30T09:09:02;16.70;99.90
10046;DHT22;5063;50.878;4.742;2023-08-30T09:11:32;16.70;99.90
10046;DHT22;5063;50.878;4.742;2023-08-30T09:13:58;16.60;99.90
10046;DHT22;5063;50.878;4.742;2023-08-30T09:16:23;16.70;99.90
10046;DHT22;5063;50.878;4.742;2023-08-30T09:19:00;16.80;99.90
10046;DHT22;5063;50.878;4.742;2023-08-30T09:21:26;16.90;99.90
10046;DHT22;5063;50.878;4.742;2023-08-30T09:26:29;17.00;99.90
10046;DHT22;5063;50.878;4.742;2023-08-30T09:29:02;17.00;99.90
10046;DHT22;5063;50.878;4.742;2023-08-30T09:31:35;17.10;99.90
10046;DHT22;5063;50.878;4.742;2023-08-30T09:34:01;17.30;99.90
10046;DHT22;5063;50.878;4.742;2023-08-30T09:36:33;17.60;99.90
10046;DHT22;5063;50.878;4.742;2023-08-30T09:39:02;18.10;99.90
10046;DHT22;5063;50.878;4.742;2023-08-30T09:41:29;18.40;99.90
10046;DHT22;5063;50.878;4.742;2023-08-30T09:43:56;18.60;99.90
10046;DHT22;5063;50.878;4.742;2023-08-30T09:46:22;18.90;99.90
10046;DHT22;5063;50.878;4.742;2023-08-30T09:48:49;19.30;99.90
10046;DHT22;5063;50.878;4.742;2023-08-30T09:51:15;19.30;99.90
10046;DHT22;5063;50.878;4.742;2023-08-30T09:53:43;19.20;99.90
10046;DHT22;5063;50.878;4.742;2023-08-30T09:56:12;19.40;99.90
10046;DHT22;5063;50.878;4.742;2023-08-30T09:58:40;19.30;99.90
10046;DHT22;5063;50.878;4.742;2023-08-30T10:01:07;19.00;99.90
10046;DHT22;5063;50.878;4.742;2023-08-30T10:03:34;18.80;99.90
10046;DHT22;5063;50.878;4.742;2023-08-30T10:06:02;18.40;99.90
10046;DHT22;5063;50.878;4.742;2023-08-30T10:08:32;18.10;99.90
10046;DHT22;5063;50.878;4.742;2023-08-30T10:10:59;18.00;99.90
10046;DHT22;5063;50.878;4.742;2023-08-30T10:13:25;17.80;99.90
10046;DHT22;5063;50.878;4.742;2023-08-30T10:16:00;17.80;99.90
10046;DHT22;5063;50.878;4.742;2023-08-30T10:18:29;17.80;99.90
10046;DHT22;5063;50.878;4.742;2023-08-30T10:20:57;17.90;99.90
10046;DHT22;5063;50.878;4.742;2023-08-30T10:23:25;17.90;99.90
10046;DHT22;5063;50.878;4.742;2023-08-30T10:25:52;18.10;99.90
10046;DHT22;5063;50.878;4.742;2023-08-30T10:28:19;18.00;99.90
10046;DHT22;5063;50.878;4.742;2023-08-30T10:30:46;17.90;99.90
10046;DHT22;5063;50.878;4.742;2023-08-30T10:33:13;17.70;99.90
10046;DHT22;5063;50.878;4.742;2023-08-30T10:35:49;17.60;99.90
10046;DHT22;5063;50.878;4.742;2023-08-30T10:38:26;17.50;99.90
10046;DHT22;5063;50.878;4.742;2023-08-30T10:40:53;17.50;99.90
10046;DHT22;5063;50.878;4.742;2023-08-30T10:43:28;17.50;99.90
10046;DHT22;5063;50.878;4.742;2023-08-30T10:46:02;17.60;99.90
10046;DHT22;5063;50.878;4.742;2023-08-30T10:48:38;17.70;99.90
10046;DHT22;5063;50.878;4.742;2023-08-30T10:51:19;17.80;99.90
10046;DHT22;5063;50.878;4.742;2023-08-30T10:53:58;17.70;99.90
10046;DHT22;5063;50.878;4.742;2023-08-30T10:56:29;17.80;99.90
10046;DHT22;5063;50.878;4.742;2023-08-30T10:58:55;17.80;99.90
10046;DHT22;5063;50.878;4.742;2023-08-30T11:01:21;18.10;99.90
10046;DHT22;5063;50.878;4.742;2023-08-30T11:03:47;18.60;99.90
10046;DHT22;5063;50.878;4.742;2023-08-30T11:06:14;19.10;99.90
10046;DHT22;5063;50.878;4.742;2023-08-30T11:08:43;19.50;99.90
10046;DHT22;5063;50.878;4.742;2023-08-30T11:11:10;19.80;99.90
10046;DHT22;5063;50.878;4.742;2023-08-30T11:13:37;19.80;99.90
10046;DHT22;5063;50.878;4.742;2023-08-30T11:16:03;20.10;99.90
10046;DHT22;5063;50.878;4.742;2023-08-30T11:18:39;19.90;99.90
10046;DHT22;5063;50.878;4.742;2023-08-30T11:21:07;20.10;99.90
10046;DHT22;5063;50.878;4.742;2023-08-30T11:23:34;20.10;99.90
10046;DHT22;5063;50.878;4.742;2023-08-30T11:26:00;20.20;99.90
10046;DHT22;5063;50.878;4.742;2023-08-30T11:28:29;20.00;99.90
10046;DHT22;5063;50.878;4.742;2023-08-30T11:30:55;20.10;99.90
10046;DHT22;5063;50.878;4.742;2023-08-30T11:33:21;20.00;99.90
10046;DHT22;5063;50.878;4.742;2023-08-30T11:35:50;20.10;99.90
10046;DHT22;5063;50.878;4.742;2023-08-30T11:38:17;20.10;99.90
10046;DHT22;5063;50.878;4.742;2023-08-30T11:40:44;20.30;99.90
10046;DHT22;5063;50.878;4.742;2023-08-30T11:43:10;20.50;99.90
10046;DHT22;5063;50.878;4.742;2023-08-30T11:45:36;20.60;99.90
10046;DHT22;5063;50.878;4.742;2023-08-30T11:48:02;20.70;99.90
10046;DHT22;5063;50.878;4.742;2023-08-30T11:50:28;20.90;99.90
10046;DHT22;5063;50.878;4.742;2023-08-30T11:52:55;21.20;99.90
10046;DHT22;5063;50.878;4.742;2023-08-30T11:55:22;21.50;99.90
10046;DHT22;5063;50.878;4.742;2023-08-30T11:57:51;21.40;99.90
10046;DHT22;5063;50.878;4.742;2023-08-30T12:00:21;21.40;99.90
10046;DHT22;5063;50.878;4.742;2023-08-30T12:02:47;21.80;99.90
10046;DHT22;5063;50.878;4.742;2023-08-30T12:05:13;21.90;99.90
10046;DHT22;5063;50.878;4.742;2023-08-30T12:07:39;22.30;99.90
10046;DHT22;5063;50.878;4.742;2023-08-30T12:10:17;22.60;99.90
10046;DHT22;5063;50.878;4.742;2023-08-30T12:12:46;22.50;99.90
10046;DHT22;5063;50.878;4.742;2023-08-30T12:15:13;22.20;99.90
10046;DHT22;5063;50.878;4.742;2023-08-30T12:17:39;21.80;99.90
10046;DHT22;5063;50.878;4.742;2023-08-30T12:20:06;21.30;99.90
10046;DHT22;5063;50.878;4.742;2023-08-30T12:22:36;20.80;99.90
10046;DHT22;5063;50.878;4.742;2023-08-30T12:25:02;20.30;99.90
10046;DHT22;5063;50.878;4.742;2023-08-30T12:27:29;20.10;99.90
10046;DHT22;5063;50.878;4.742;2023-08-30T12:29:55;20.20;99.90
10046;DHT22;5063;50.878;4.742;2023-08-30T12:32:21;20.50;99.90
10046;DHT22;5063;50.878;4.742;2023-08-30T12:34:47;20.60;99.90
10046;DHT22;5063;50.878;4.742;2023-08-30T12:37:12;20.70;99.90
10046;DHT22;5063;50.878;4.742;2023-08-30T12:39:38;20.80;99.90
10046;DHT22;5063;50.878;4.742;2023-08-30T12:42:04;20.80;99.90
10046;DHT22;5063;50.878;4.742;2023-08-30T12:44:30;20.60;99.90
10046;DHT22;5063;50.878;4.742;2023-08-30T12:46:55;20.30;99.90
10046;DHT22;5063;50.878;4.742;2023-08-30T12:49:21;20.30;99.90
10046;DHT22;5063;50.878;4.742;2023-08-30T12:51:47;20.50;99.90
10046;DHT22;5063;50.878;4.742;2023-08-30T12:54:12;20.30;99.90
10046;DHT22;5063;50.878;4.742;2023-08-30T12:56:38;20.20;99.90
10046;DHT22;5063;50.878;4.742;2023-08-30T12:59:04;20.10;99.90
10046;DHT22;5063;50.878;4.742;2023-08-30T13:01:29;20.00;99.90
10046;DHT22;5063;50.878;4.742;2023-08-30T13:03:55;20.10;99.90
10046;DHT22;5063;50.878;4.742;2023-08-30T13:06:21;20.20;99.90
10046;DHT22;5063;50.878;4.742;2023-08-30T13:08:47;20.20;99.90
10046;DHT22;5063;50.878;4.742;2023-08-30T13:11:12;20.50;99.90
10046;DHT22;5063;50.878;4.742;2023-08-30T13:13:38;20.30;99.90
10046;DHT22;5063;50.878;4.742;2023-08-30T13:16:04;20.40;99.90
10046;DHT22;5063;50.878;4.742;2023-08-30T13:18:29;20.70;99.90
10046;DHT22;5063;50.878;4.742;2023-08-30T13:20:55;21.00;99.90
10046;DHT22;5063;50.878;4.742;2023-08-30T13:23:21;20.80;99.90
10046;DHT22;5063;50.878;4.742;2023-08-30T13:25:47;20.60;99.90
10046;DHT22;5063;50.878;4.742;2023-08-30T13:28:14;20.60;99.90
10046;DHT22;5063;50.878;4.742;2023-08-30T13:30:46;20.50;99.90
10046;DHT22;5063;50.878;4.742;2023-08-30T13:33:12;20.50;99.90
10046;DHT22;5063;50.878;4.742;2023-08-30T13:35:41;20.40;99.90
10046;DHT22;5063;50.878;4.742;2023-08-30T13:38:07;20.20;99.90
10046;DHT22;5063;50.878;4.742;2023-08-30T13:40:33;20.10;99.90
10046;DHT22;5063;50.878;4.742;2023-08-30T13:42:58;19.80;99.90
10046;DHT22;5063;50.878;4.742;2023-08-30T13:45:24;19.70;99.90
10046;DHT22;5063;50.878;4.742;2023-08-30T13:47:50;19.60;99.90
10046;DHT22;5063;50.878;4.742;2023-08-30T13:50:18;19.80;99.90
10046;DHT22;5063;50.878;4.742;2023-08-30T13:52:44;19.80;99.90
10046;DHT22;5063;50.878;4.742;2023-08-30T13:55:10;19.70;99.90
10046;DHT22;5063;50.878;4.742;2023-08-30T13:57:35;19.90;99.90
10046;DHT22;5063;50.878;4.742;2023-08-30T14:00:01;20.10;99.90
10046;DHT22;5063;50.878;4.742;2023-08-30T14:02:31;20.40;99.90
10046;DHT22;5063;50.878;4.742;2023-08-30T14:04:57;20.70;99.90
10046;DHT22;5063;50.878;4.742;2023-08-30T14:07:23;20.90;99.90
10046;DHT22;5063;50.878;4.742;2023-08-30T14:09:49;21.00;99.90
10046;DHT22;5063;50.878;4.742;2023-08-30T14:12:14;21.00;99.90
10046;DHT22;5063;50.878;4.742;2023-08-30T14:14:40;20.70;99.90
10046;DHT22;5063;50.878;4.742;2023-08-30T14:17:06;20.40;99.90
10046;DHT22;5063;50.878;4.742;2023-08-30T14:19:34;20.30;99.90
10046;DHT22;5063;50.878;4.742;2023-08-30T14:22:00;20.10;99.90
10046;DHT22;5063;50.878;4.742;2023-08-30T14:24:28;20.10;99.90
10046;DHT22;5063;50.878;4.742;2023-08-30T14:26:54;20.00;99.90
10046;DHT22;5063;50.878;4.742;2023-08-30T14:29:20;19.80;99.90
10046;DHT22;5063;50.878;4.742;2023-08-30T14:31:47;19.70;99.90
10046;DHT22;5063;50.878;4.742;2023-08-30T14:34:13;19.70;99.90
10046;DHT22;5063;50.878;4.742;2023-08-30T14:36:39;19.50;99.90
10046;DHT22;5063;50.878;4.742;2023-08-30T14:39:06;19.40;99.90
10046;DHT22;5063;50.878;4.742;2023-08-30T14:41:32;19.30;99.90
10046;DHT22;5063;50.878;4.742;2023-08-30T14:43:58;19.30;99.90
10046;DHT22;5063;50.878;4.742;2023-08-30T14:46:24;19.10;99.90
10046;DHT22;5063;50.878;4.742;2023-08-30T14:48:49;19.30;99.90
10046;DHT22;5063;50.878;4.742;2023-08-30T14:51:15;19.60;99.90
10046;DHT22;5063;50.878;4.742;2023-08-30T14:53:41;19.40;99.90
10046;DHT22;5063;50.878;4.742;2023-08-30T14:56:06;19.20;99.90
10046;DHT22;5063;50.878;4.742;2023-08-30T14:58:33;19.10;99.90
10046;DHT22;5063;50.878;4.742;2023-08-30T15:01:00;19.10;99.90
10046;DHT22;5063;50.878;4.742;2023-08-30T15:03:25;19.20;99.90
10046;DHT22;5063;50.878;4.742;2023-08-30T15:05:55;19.50;99.90
10046;DHT22;5063;50.878;4.742;2023-08-30T15:08:22;19.50;99.90
10046;DHT22;5063;50.878;4.742;2023-08-30T15:10:48;19.80;99.90
10046;DHT22;5063;50.878;4.742;2023-08-30T15:13:14;20.10;99.90
10046;DHT22;5063;50.878;4.742;2023-08-30T15:15:39;20.30;99.90
10046;DHT22;5063;50.878;4.742;2023-08-30T15:18:05;20.40;99.90
10046;DHT22;5063;50.878;4.742;2023-08-30T15:20:31;20.50;99.90
10046;DHT22;5063;50.878;4.742;2023-08-30T15:22:57;20.30;99.90
10046;DHT22;5063;50.878;4.742;2023-08-30T15:25:24;20.50;99.90
10046;DHT22;5063;50.878;4.742;2023-08-30T15:27:50;20.50;99.90
10046;DHT22;5063;50.878;4.742;2023-08-30T15:30:16;20.60;99.90
10046;DHT22;5063;50.878;4.742;2023-08-30T15:32:44;21.00;99.90
10046;DHT22;5063;50.878;4.742;2023-08-30T15:35:10;21.00;99.90
10046;DHT22;5063;50.878;4.742;2023-08-30T15:37:36;20.70;99.90
10046;DHT22;5063;50.878;4.742;2023-08-30T15:40:03;20.40;99.90
10046;DHT22;5063;50.878;4.742;2023-08-30T15:42:33;20.20;99.90
10046;DHT22;5063;50.878;4.742;2023-08-30T15:45:00;20.00;99.90